Time;durP1;ratioP1;P1;durP2;ratioP2;P2;SDS_P1;SDS_P2;PMS_P1;PMS_P2;Temp;Humidity;BMP_temperature;BMP_pressure;BME280_temperature;BME280_humidity;BME280_pressure;Samples;Min_cycle;Max_cycle;Signal;HPM_P1;HPM_P2
2023/03/17 00:00:46;;;;;;;7.97;3.88;;;;;;;7.50;61.90;101602.50;5075567;28;20049;-84
2023/03/17 00:03:28;;;;;;;6.35;3.80;;;;;;;7.51;61.81;101610.44;5074829;28;20056;-83
2023/03/17 00:05:58;;;;;;;5.00;3.72;;;;;;;7.48;62.53;101616.34;5073667;28;20053;-83
2023/03/17 00:08:30;;;;;;;5.32;3.70;;;;;;;7.34;61.74;101612.19;5074222;28;20487;-83
2023/03/17 00:10:58;;;;;;;5.38;3.47;;;;;;;7.31;61.94;101616.19;5074088;28;20419;-83
2023/03/17 00:13:27;;;;;;;6.10;3.50;;;;;;;7.22;62.01;101618.44;5073692;28;20053;-83
2023/03/17 00:16:00;;;;;;;6.68;3.70;;;;;;;7.24;62.67;101618.19;5074139;28;20036;-83
2023/03/17 00:18:34;;;;;;;6.43;3.28;;;;;;;7.17;62.77;101618.28;5073860;28;20395;-83
2023/03/17 00:21:02;;;;;;;6.03;3.63;;;;;;;6.96;64.69;101601.41;5074446;28;20051;-83
2023/03/17 00:23:30;;;;;;;6.63;3.95;;;;;;;6.95;65.14;101605.16;5072849;28;20063;-84
2023/03/17 00:25:58;;;;;;;5.55;3.85;;;;;;;6.90;64.67;101612.38;5073434;28;20407;-83
2023/03/17 00:28:26;;;;;;;7.72;4.55;;;;;;;6.91;66.02;101604.00;5074044;28;20111;-83
2023/03/17 00:30:59;;;;;;;4.93;3.35;;;;;;;6.82;66.45;101608.06;5073773;28;20056;-83
2023/03/17 00:33:31;;;;;;;5.03;3.72;;;;;;;6.79;65.86;101606.66;5056098;28;20040;-83
2023/03/17 00:36:00;;;;;;;5.22;4.10;;;;;;;6.81;64.86;101603.69;5088648;28;20044;-83
2023/03/17 00:38:28;;;;;;;8.30;4.43;;;;;;;6.86;64.70;101609.28;5073897;28;20047;-83
2023/03/17 00:40:58;;;;;;;7.75;4.35;;;;;;;6.83;64.60;101613.28;5073716;28;20052;-83
2023/03/17 00:43:26;;;;;;;5.05;4.15;;;;;;;6.81;65.19;101609.97;5072823;28;20048;-82
2023/03/17 00:45:57;;;;;;;8.75;4.30;;;;;;;6.75;65.86;101599.19;5073166;28;20063;-83
2023/03/17 00:48:27;;;;;;;5.45;4.47;;;;;;;6.78;65.20;101610.44;5073801;28;20051;-83
2023/03/17 00:50:55;;;;;;;5.75;4.05;;;;;;;6.70;66.07;101603.41;5073705;28;20533;-83
2023/03/17 00:53:23;;;;;;;6.65;4.45;;;;;;;6.71;66.39;101605.06;5073024;28;20060;-84
2023/03/17 00:55:51;;;;;;;10.02;4.40;;;;;;;6.61;66.23;101599.34;5054815;28;20047;-84
2023/03/17 00:58:31;;;;;;;8.40;4.63;;;;;;;6.61;67.44;101585.75;5073596;28;20045;-83
2023/03/17 01:01:00;;;;;;;7.03;5.10;;;;;;;6.63;65.94;101583.63;5088117;28;20399;-83
2023/03/17 01:03:28;;;;;;;8.98;4.30;;;;;;;6.57;66.28;101576.38;5073318;28;20063;-83
2023/03/17 01:05:56;;;;;;;7.47;5.32;;;;;;;6.62;66.45;101584.69;5073294;28;20040;-84
2023/03/17 01:08:25;;;;;;;6.00;4.25;;;;;;;6.55;68.05;101573.06;5055451;28;20048;-83
2023/03/17 01:10:53;;;;;;;6.80;4.57;;;;;;;6.53;68.09;101572.44;5073277;28;20051;-83
2023/03/17 01:13:22;;;;;;;9.52;4.70;;;;;;;6.48;68.78;101572.28;5054898;28;20048;-83
2023/03/17 01:15:51;;;;;;;9.93;4.50;;;;;;;6.39;67.78;101575.34;5072354;28;20081;-83
2023/03/17 01:18:21;;;;;;;6.65;4.10;;;;;;;6.32;69.09;101566.44;5055296;28;20487;-83
2023/03/17 01:20:50;;;;;;;9.70;4.82;;;;;;;6.35;68.98;101562.44;5054482;28;20048;-83
2023/03/17 01:23:18;;;;;;;6.88;4.35;;;;;;;6.40;68.64;101571.56;5072743;28;20056;-83
2023/03/17 01:25:46;;;;;;;5.53;4.03;;;;;;;6.35;67.58;101568.69;5072970;28;20044;-83
2023/03/17 01:28:16;;;;;;;5.65;3.92;;;;;;;6.32;69.24;101569.16;5072938;28;20044;-83
2023/03/17 01:30:45;;;;;;;5.40;3.90;;;;;;;6.34;68.25;101567.03;5087633;28;20056;-83
2023/03/17 01:33:14;;;;;;;5.40;3.72;;;;;;;6.28;67.41;101573.38;5072698;28;20055;-83
2023/03/17 01:35:44;;;;;;;4.15;3.25;;;;;;;6.15;67.09;101563.47;5072639;28;20048;-83
2023/03/17 01:38:13;;;;;;;5.70;3.47;;;;;;;6.15;67.28;101561.59;5072119;28;20064;-83
2023/03/17 01:40:45;;;;;;;3.92;3.08;;;;;;;6.12;67.63;101572.88;5087844;28;20372;-83
2023/03/17 01:43:30;;;;;;;3.67;3.00;;;;;;;6.04;67.69;101557.75;5088423;28;20052;-83
2023/03/17 01:46:28;;;;;;;3.72;3.38;;;;;;;6.10;68.12;101561.44;5072509;28;20049;-83
2023/03/17 01:49:18;;;;;;;6.72;3.78;;;;;;;6.10;66.85;101561.44;5071596;28;20056;-83
2023/03/17 01:52:01;;;;;;;4.53;3.50;;;;;;;6.15;69.31;101552.59;5071543;28;20044;-83
2023/03/17 01:54:45;;;;;;;6.20;3.65;;;;;;;6.10;69.00;101561.44;5072388;28;20044;-83
2023/03/17 01:57:25;;;;;;;5.28;3.95;;;;;;;5.99;68.80;101554.84;5071033;28;20052;-83
2023/03/17 02:00:06;;;;;;;4.38;3.70;;;;;;;5.92;69.77;101562.22;5072309;28;20056;-83
2023/03/17 02:02:45;;;;;;;5.93;3.70;;;;;;;5.90;68.99;101556.16;5054375;28;20052;-83
2023/03/17 02:05:19;;;;;;;5.70;4.22;;;;;;;5.91;69.02;101555.09;5072038;28;20403;-83
2023/03/17 02:07:48;;;;;;;5.03;3.38;;;;;;;5.96;67.11;101551.72;5071482;28;20052;-83
2023/03/17 02:10:19;;;;;;;5.32;3.67;;;;;;;6.04;66.21;101551.47;5072109;28;20057;-84
2023/03/17 02:12:52;;;;;;;4.35;3.28;;;;;;;6.05;68.28;101547.69;5055031;28;20367;-83
2023/03/17 02:15:20;;;;;;;5.15;3.40;;;;;;;5.97;67.53;101553.38;5053914;28;20056;-84
2023/03/17 02:17:48;;;;;;;4.38;3.70;;;;;;;5.83;70.48;101545.38;5053623;28;20386;-83
2023/03/17 02:20:16;;;;;;;5.75;4.03;;;;;;;5.67;70.01;101548.66;5053195;28;20052;-83
2023/03/17 02:22:48;;;;;;;9.05;3.90;;;;;;;5.67;70.01;101556.81;5071039;28;20052;-83
2023/03/17 02:25:18;;;;;;;4.82;3.45;;;;;;;5.51;69.11;101550.88;5054021;28;20071;-83
2023/03/17 02:27:50;;;;;;;6.72;3.78;;;;;;;5.62;69.06;101555.59;5054173;28;20045;-84
2023/03/17 02:30:22;;;;;;;6.82;3.88;;;;;;;5.65;68.94;101551.59;5071511;28;20048;-84
2023/03/17 02:32:50;;;;;;;6.22;3.63;;;;;;;5.63;68.47;101551.00;5072175;28;20052;-83
2023/03/17 02:35:22;;;;;;;5.35;3.90;;;;;;;5.62;70.13;101555.59;5053667;28;20044;-83
2023/03/17 02:37:50;;;;;;;4.90;3.80;;;;;;;5.55;69.41;101554.81;5071556;28;20499;-83
2023/03/17 02:40:18;;;;;;;7.88;4.03;;;;;;;5.64;68.44;101550.75;5071101;28;20056;-84
2023/03/17 02:42:46;;;;;;;6.85;3.45;;;;;;;5.58;68.11;101550.84;5071552;28;20063;-83
2023/03/17 02:45:14;;;;;;;4.63;3.45;;;;;;;5.63;68.06;101543.66;5070709;28;20048;-83
2023/03/17 02:47:42;;;;;;;7.80;3.78;;;;;;;5.72;67.03;101548.84;5071802;28;20041;-83
2023/03/17 02:50:17;;;;;;;4.93;3.85;;;;;;;5.62;68.33;101547.44;5070463;28;20045;-84
2023/03/17 02:52:45;;;;;;;12.88;4.60;;;;;;;5.75;67.94;101549.22;5071327;28;20052;-83
2023/03/17 02:55:13;;;;;;;6.45;4.07;;;;;;;5.58;68.11;101548.13;5071747;28;20052;-83
2023/03/17 02:57:42;;;;;;;7.75;4.07;;;;;;;5.46;68.62;101550.72;5070880;28;20044;-83
2023/03/17 03:00:10;;;;;;;6.88;3.53;;;;;;;5.36;71.24;101551.22;5053737;28;20044;-83
2023/03/17 03:02:38;;;;;;;7.57;3.95;;;;;;;5.34;69.87;101550.59;5070946;28;20059;-83
2023/03/17 03:05:07;;;;;;;6.68;3.85;;;;;;;5.28;72.43;101543.34;5071256;28;20059;-83
2023/03/17 03:07:35;;;;;;;5.55;3.75;;;;;;;5.29;71.21;101535.00;5071252;28;20049;-83
2023/03/17 03:10:04;;;;;;;6.40;4.22;;;;;;;5.23;71.76;101544.81;5073709;28;20040;-83
2023/03/17 03:12:32;;;;;;;9.20;3.80;;;;;;;5.23;69.98;101546.72;5075544;28;20048;-83
2023/03/17 03:15:00;;;;;;;7.40;3.55;;;;;;;5.30;70.67;101541.22;5074509;28;20510;-83
2023/03/17 03:17:28;;;;;;;4.82;3.38;;;;;;;5.30;70.69;101552.09;5074783;28;20048;-83
2023/03/17 03:19:55;;;;;;;5.63;3.95;;;;;;;5.22;71.35;101545.88;5075147;28;20479;-83
2023/03/17 03:22:23;;;;;;;4.70;3.70;;;;;;;5.24;71.81;101545.66;5074694;28;20056;-82
2023/03/17 03:24:51;;;;;;;4.82;3.53;;;;;;;5.22;71.73;101536.91;5076286;28;20044;-83
2023/03/17 03:27:19;;;;;;;6.22;4.25;;;;;;;5.21;71.36;101543.38;5075105;28;20403;-83
2023/03/17 03:29:47;;;;;;;4.68;3.10;;;;;;;5.16;71.97;101543.22;5074642;28;20517;-82
2023/03/17 03:32:15;;;;;;;5.07;3.50;;;;;;;5.03;71.02;101533.28;5074973;28;20063;-83
2023/03/17 03:34:43;;;;;;;5.38;3.50;;;;;;;5.04;73.29;101548.53;5075103;28;20044;-83
2023/03/17 03:37:11;;;;;;;5.75;3.30;;;;;;;5.09;70.60;101546.81;5074408;28;20055;-83
2023/03/17 03:39:39;;;;;;;7.72;4.28;;;;;;;5.09;70.84;101541.38;5074010;28;20055;-83
2023/03/17 03:42:07;;;;;;;4.00;3.47;;;;;;;5.14;69.67;101539.91;5056863;28;20060;-83
2023/03/17 03:44:35;;;;;;;4.93;3.10;;;;;;;5.09;69.89;101543.28;5074782;28;20048;-83
2023/03/17 03:47:03;;;;;;;4.78;3.28;;;;;;;5.11;71.13;101547.44;5074328;28;20051;-83
2023/03/17 03:49:31;;;;;;;6.07;3.38;;;;;;;5.14;70.42;101553.47;5074799;28;20040;-83
2023/03/17 03:51:59;;;;;;;5.35;3.75;;;;;;;5.10;71.70;101548.47;5074189;28;20055;-82
2023/03/17 03:54:27;;;;;;;6.80;3.55;;;;;;;5.08;72.09;101553.28;5074327;28;20049;-82
2023/03/17 03:56:54;;;;;;;5.63;3.90;;;;;;;5.10;71.40;101559.31;5074584;28;20033;-83
2023/03/17 03:59:22;;;;;;;5.43;3.70;;;;;;;5.00;73.48;101548.13;5074071;28;20493;-82
2023/03/17 04:01:50;;;;;;;7.10;3.72;;;;;;;4.92;74.06;101551.09;5073950;28;20052;-82
2023/03/17 04:04:18;;;;;;;5.53;3.67;;;;;;;4.89;72.90;101555.06;5073978;28;20053;-82
2023/03/17 04:06:46;;;;;;;5.68;3.63;;;;;;;4.86;72.03;101551.97;5074503;28;20376;-82
2023/03/17 04:09:14;;;;;;;6.97;4.07;;;;;;;4.80;73.03;101549.06;5073810;28;20056;-82
2023/03/17 04:11:42;;;;;;;5.80;3.50;;;;;;;4.78;73.44;101551.16;5073929;28;20052;-82
2023/03/17 04:14:11;;;;;;;3.85;3.35;;;;;;;4.73;74.75;101556.41;5056347;28;20332;-82
2023/03/17 04:16:39;;;;;;;5.90;3.00;;;;;;;4.77;72.77;101560.34;5073530;28;20157;-83
2023/03/17 04:19:10;;;;;;;6.28;3.53;;;;;;;4.77;71.80;101560.34;5074561;28;20051;-82
2023/03/17 04:21:38;;;;;;;5.68;3.50;;;;;;;4.79;69.74;101557.44;5073210;28;20048;-83
2023/03/17 04:24:06;;;;;;;4.60;3.20;;;;;;;4.80;72.13;101554.47;5074113;28;20063;-82
2023/03/17 04:26:35;;;;;;;5.78;3.38;;;;;;;4.80;71.31;101559.91;5074474;28;20053;-82
2023/03/17 04:29:02;;;;;;;3.78;2.97;;;;;;;4.80;70.05;101564.53;5074157;28;20043;-82
2023/03/17 04:31:31;;;;;;;7.28;3.55;;;;;;;4.87;70.41;101559.88;5073634;28;20053;-82
2023/03/17 04:33:58;;;;;;;5.15;3.40;;;;;;;4.90;71.27;101559.47;5074042;28;20048;-82
2023/03/17 04:36:26;;;;;;;6.93;3.78;;;;;;;4.91;71.34;101565.69;5073337;28;20487;-82
2023/03/17 04:38:54;;;;;;;7.30;3.92;;;;;;;4.88;71.24;101560.72;5073207;28;20060;-82
2023/03/17 04:41:23;;;;;;;7.47;4.15;;;;;;;4.87;71.06;101559.88;5073441;28;20498;-82
2023/03/17 04:43:50;;;;;;;8.25;3.80;;;;;;;4.86;70.92;101560.94;5073384;28;20049;-82
2023/03/17 04:46:18;;;;;;;6.78;3.92;;;;;;;4.78;70.54;101553.03;5073885;28;20040;-82
2023/03/17 04:48:46;;;;;;;9.18;4.32;;;;;;;4.78;72.11;101551.16;5073215;28;20422;-82
2023/03/17 04:51:15;;;;;;;10.65;4.80;;;;;;;4.82;71.46;101546.97;5088859;28;20052;-82
2023/03/17 04:53:44;;;;;;;5.63;4.13;;;;;;;4.91;68.83;101544.84;5072473;28;20053;-82
2023/03/17 04:56:12;;;;;;;9.15;4.32;;;;;;;4.96;70.06;101547.75;5072697;28;20052;-82
2023/03/17 04:58:40;;;;;;;7.70;4.28;;;;;;;4.94;69.63;101543.56;5073525;28;20036;-82
2023/03/17 05:01:08;;;;;;;9.10;4.75;;;;;;;4.93;69.82;101536.47;5073325;28;20055;-82
2023/03/17 05:03:36;;;;;;;7.95;4.13;;;;;;;4.83;69.44;101543.22;5073373;28;20041;-83
2023/03/17 05:06:05;;;;;;;5.85;3.80;;;;;;;4.89;68.37;101546.09;5072589;28;20076;-83
2023/03/17 05:08:33;;;;;;;6.25;3.75;;;;;;;5.00;69.44;101552.72;5072668;28;20057;-82
2023/03/17 05:11:01;;;;;;;6.72;3.95;;;;;;;4.99;69.40;101549.19;5054964;28;20045;-82
2023/03/17 05:13:29;;;;;;;4.85;3.92;;;;;;;4.93;68.87;101556.28;5073241;28;20036;-82
2023/03/17 05:15:59;;;;;;;6.57;3.97;;;;;;;4.92;69.66;101548.38;5073112;28;20045;-83
2023/03/17 05:18:27;;;;;;;4.72;3.58;;;;;;;4.91;69.28;101554.84;5055124;28;20045;-82
2023/03/17 05:20:55;;;;;;;6.25;3.40;;;;;;;5.16;72.10;101551.34;5072520;28;20048;-81
2023/03/17 05:23:24;;;;;;;5.28;3.53;;;;;;;5.80;70.67;101551.25;5038322;28;20048;-85
2023/03/17 05:25:53;;;;;;;5.45;3.25;;;;;;;5.92;65.13;101564.94;5038560;28;20048;-82
2023/03/17 05:28:21;;;;;;;5.85;3.60;;;;;;;5.55;67.61;101549.38;5072055;28;20059;-82
2023/03/17 05:30:49;;;;;;;5.30;3.45;;;;;;;5.40;65.96;101555.16;5072101;28;20044;-82
2023/03/17 05:33:18;;;;;;;6.05;2.92;;;;;;;5.18;67.31;101552.78;5071310;28;20045;-82
2023/03/17 05:35:46;;;;;;;5.10;3.00;;;;;;;5.04;68.92;101557.47;5088156;28;20047;-82
2023/03/17 05:38:14;;;;;;;5.80;3.30;;;;;;;4.96;69.17;101555.03;5093041;28;20040;-82
2023/03/17 05:40:43;;;;;;;4.53;3.50;;;;;;;5.07;68.45;101551.63;5073922;28;20048;-82
2023/03/17 05:43:11;;;;;;;5.88;3.63;;;;;;;5.09;65.90;101552.22;5092687;28;20048;-82
2023/03/17 05:45:39;;;;;;;9.35;4.05;;;;;;;5.14;66.38;101548.88;5096016;28;20510;-82
2023/03/17 05:48:08;;;;;;;8.05;4.22;;;;;;;5.24;65.64;101545.66;5072815;28;20516;-82
2023/03/17 05:50:36;;;;;;;7.00;4.30;;;;;;;5.38;64.37;101554.56;5054955;28;20380;-82
2023/03/17 05:53:05;;;;;;;8.07;3.75;;;;;;;5.42;65.11;101560.38;5072884;28;20044;-81
2023/03/17 05:55:33;;;;;;;3.92;3.30;;;;;;;5.40;64.33;101560.56;5073481;28;20059;-82
2023/03/17 05:58:03;;;;;;;5.43;3.50;;;;;;;5.77;62.74;101562.56;5072604;28;20051;-82
2023/03/17 06:00:36;;;;;;;5.43;3.35;;;;;;;5.89;61.43;101560.78;5072448;28;20048;-82
2023/03/17 06:03:04;;;;;;;7.20;3.00;;;;;;;6.02;60.51;101556.28;5072328;28;20047;-84
2023/03/17 06:05:33;;;;;;;6.35;2.85;;;;;;;6.17;60.25;101556.75;5088702;28;20406;-83
2023/03/17 06:08:01;;;;;;;4.53;3.00;;;;;;;6.38;59.09;101561.94;5089866;28;20063;-82
2023/03/17 06:10:30;;;;;;;3.92;2.88;;;;;;;6.51;59.97;101553.63;5086547;28;20036;-80
2023/03/17 06:12:58;;;;;;;4.65;3.08;;;;;;;6.69;58.75;101558.22;5078829;28;20238;-81
2023/03/17 06:15:27;;;;;;;5.57;3.42;;;;;;;6.85;58.78;101558.66;5092025;28;20059;-83
2023/03/17 06:17:56;;;;;;;5.82;3.22;;;;;;;6.86;58.73;101557.59;5085175;28;20044;-79
2023/03/17 06:20:24;;;;;;;6.28;2.80;;;;;;;6.96;57.57;101555.16;5059509;28;20052;-83
2023/03/17 06:22:52;;;;;;;5.10;3.42;;;;;;;7.08;57.02;101551.59;5070916;28;20044;-83
2023/03/17 06:25:34;;;;;;;5.15;2.83;;;;;;;7.37;56.19;101557.25;5071024;28;20056;-84
2023/03/17 06:28:04;;;;;;;5.47;2.80;;;;;;;7.72;55.46;101555.63;5076760;28;20048;-84
2023/03/17 06:30:34;;;;;;;6.68;2.67;;;;;;;8.13;54.54;101551.13;5085816;28;20052;-83
2023/03/17 06:33:02;;;;;;;4.75;2.75;;;;;;;8.41;53.03;101545.94;5080435;28;20056;-83
2023/03/17 06:35:31;;;;;;;4.97;2.38;;;;;;;8.47;51.27;101548.53;5052290;28;20049;-84
2023/03/17 06:38:01;;;;;;;3.90;2.40;;;;;;;8.40;52.76;101552.47;5069998;28;20051;-85
2023/03/17 06:40:29;;;;;;;3.75;2.72;;;;;;;8.38;56.07;101551.88;5075474;28;20044;-84
2023/03/17 06:43:08;;;;;;;3.55;2.72;;;;;;;8.33;53.68;101558.06;5054359;28;20518;-89
2023/03/17 06:45:36;;;;;;;2.58;2.38;;;;;;;8.32;53.24;101556.41;5070295;28;20052;-89
2023/03/17 06:48:05;;;;;;;2.63;2.42;;;;;;;8.39;54.94;101556.25;5069970;28;20053;-89
2023/03/17 06:50:33;;;;;;;3.72;2.92;;;;;;;8.16;53.33;101558.78;5086153;28;20483;-89
2023/03/17 06:53:01;;;;;;;4.40;2.90;;;;;;;8.38;52.78;101560.06;5090723;28;20043;-88
2023/03/17 06:55:30;;;;;;;3.13;2.30;;;;;;;8.44;52.08;101562.66;5079860;28;20078;-90
2023/03/17 06:57:59;;;;;;;5.65;2.17;;;;;;;8.60;52.48;101561.09;5090290;28;20059;-88
2023/03/17 07:00:27;;;;;;;3.40;2.38;;;;;;;9.00;51.91;101561.31;5089251;28;20052;-89
2023/03/17 07:02:55;;;;;;;5.03;2.30;;;;;;;9.35;52.98;101556.72;5090707;28;20114;-89
2023/03/17 07:05:23;;;;;;;5.35;2.67;;;;;;;9.21;49.65;101565.22;5090583;28;20055;-89
2023/03/17 07:07:51;;;;;;;3.30;2.50;;;;;;;9.29;50.00;101561.25;5091540;28;20405;-89
2023/03/17 07:10:19;;;;;;;3.75;2.72;;;;;;;9.33;49.52;101565.16;5091316;28;20052;-89
2023/03/17 07:12:47;;;;;;;3.47;2.83;;;;;;;9.39;48.04;101557.88;5091104;28;20040;-88
2023/03/17 07:15:17;;;;;;;4.57;2.50;;;;;;;9.49;47.87;101563.50;5090157;28;20402;-88
2023/03/17 07:17:48;;;;;;;5.00;2.13;;;;;;;9.55;47.29;101564.41;5090872;28;20048;-89
2023/03/17 07:20:16;;;;;;;3.28;2.15;;;;;;;9.92;47.86;101563.06;5090111;28;20048;-89
2023/03/17 07:22:44;;;;;;;2.58;2.38;;;;;;;9.91;46.44;101567.69;5107356;28;20494;-89
2023/03/17 07:25:12;;;;;;;3.72;2.22;;;;;;;10.54;47.69;101576.75;5092849;28;20059;-89
2023/03/17 07:27:40;;;;;;;3.72;2.30;;;;;;;10.34;46.42;101569.91;5090941;28;20048;-89
2023/03/17 07:30:09;;;;;;;3.90;2.22;;;;;;;10.66;46.58;101569.22;5090524;28;20040;-89
2023/03/17 07:32:38;;;;;;;3.58;2.22;;;;;;;11.05;46.57;101575.66;5091164;28;20139;-88
2023/03/17 07:35:06;;;;;;;3.75;2.58;;;;;;;11.63;45.95;101566.84;5090517;28;20052;-88
2023/03/17 07:37:35;;;;;;;4.35;3.22;;;;;;;11.88;44.68;101570.88;5090608;28;20064;-88
2023/03/17 07:40:03;;;;;;;5.40;3.80;;;;;;;11.95;44.74;101571.44;5090171;28;20060;-88
2023/03/17 07:42:32;;;;;;;5.57;3.00;;;;;;;12.08;46.17;101571.00;5072430;28;20047;-88
2023/03/17 07:45:01;;;;;;;4.18;3.03;;;;;;;12.52;43.34;101579.19;5090140;28;20064;-88
2023/03/17 07:47:29;;;;;;;4.45;3.00;;;;;;;13.28;42.32;101569.47;5090513;28;20513;-88
2023/03/17 07:49:57;;;;;;;2.75;2.55;;;;;;;13.54;40.94;101566.72;5089635;28;20048;-89
2023/03/17 07:52:25;;;;;;;5.30;2.75;;;;;;;13.94;40.71;101572.44;5089854;28;20055;-88
2023/03/17 07:54:54;;;;;;;6.07;2.60;;;;;;;13.98;38.73;101568.06;5074045;28;20068;-88
2023/03/17 07:57:23;;;;;;;3.65;2.42;;;;;;;14.06;39.36;101568.56;5039709;28;20051;-88
2023/03/17 07:59:51;;;;;;;3.92;2.45;;;;;;;13.94;39.31;101564.19;5073566;28;20388;-88
2023/03/17 08:02:19;;;;;;;5.70;2.45;;;;;;;13.91;37.51;101563.94;5073455;28;20045;-88
2023/03/17 08:04:48;;;;;;;3.20;2.15;;;;;;;14.15;38.39;101572.41;5091713;28;20517;-88
2023/03/17 08:07:16;;;;;;;3.92;2.50;;;;;;;14.67;36.64;101572.22;5092569;28;20048;-89
2023/03/17 08:09:44;;;;;;;3.03;1.67;;;;;;;14.26;33.82;101572.38;5107781;28;20044;-89
2023/03/17 08:12:12;;;;;;;3.28;1.95;;;;;;;14.20;34.91;101564.16;5093687;28;20048;-88
2023/03/17 08:14:40;;;;;;;2.92;1.35;;;;;;;15.02;34.94;101564.84;5079828;28;20052;-88
2023/03/17 08:17:09;;;;;;;2.10;1.40;;;;;;;15.05;33.80;101563.44;5073620;28;20364;-89
2023/03/17 08:19:37;;;;;;;1.83;1.63;;;;;;;14.89;31.20;101566.31;5085382;28;20044;-89
2023/03/17 08:22:05;;;;;;;2.47;1.38;;;;;;;15.18;31.39;101567.50;5094077;28;20048;-87
2023/03/17 08:24:37;;;;;;;2.25;1.25;;;;;;;15.18;30.17;101570.25;5076600;28;20053;-88
2023/03/17 08:27:06;;;;;;;2.55;1.20;;;;;;;15.53;30.13;101561.97;5076354;28;20055;-89
2023/03/17 08:29:34;;;;;;;2.05;1.40;;;;;;;15.05;29.68;101572.56;5071204;28;20056;-87
2023/03/17 08:32:02;;;;;;;1.83;1.65;;;;;;;14.81;31.51;101568.84;5073475;28;20053;-89
2023/03/17 08:34:30;;;;;;;3.83;1.60;;;;;;;14.79;30.57;101563.63;5074609;28;20052;-88
2023/03/17 08:37:00;;;;;;;1.88;1.15;;;;;;;14.86;31.88;101566.06;5073081;28;20070;-89
2023/03/17 08:39:28;;;;;;;2.00;1.35;;;;;;;14.41;31.68;101561.31;5073218;28;20498;-88
2023/03/17 08:41:57;;;;;;;3.75;1.65;;;;;;;14.75;32.01;101570.81;5073791;28;20491;-89
2023/03/17 08:44:25;;;;;;;2.92;1.40;;;;;;;14.72;31.39;101569.41;5076206;28;20055;-88
2023/03/17 08:46:53;;;;;;;3.35;1.38;;;;;;;14.74;32.27;101570.00;5059794;28;20560;-89
2023/03/17 08:49:21;;;;;;;1.95;1.48;;;;;;;14.92;31.29;101567.69;5075582;28;20056;-89
2023/03/17 08:51:50;;;;;;;1.38;1.20;;;;;;;15.17;31.85;101566.66;5075553;28;20041;-90
2023/03/17 08:54:18;;;;;;;2.35;1.65;;;;;;;14.91;31.94;101569.59;5076930;28;20060;-89
2023/03/17 08:56:46;;;;;;;2.83;1.80;;;;;;;14.67;31.09;101563.94;5093090;28;20058;-90
2023/03/17 08:59:14;;;;;;;3.00;1.63;;;;;;;14.63;32.69;101562.88;5058467;28;20538;-89
2023/03/17 09:01:44;;;;;;;1.65;1.55;;;;;;;14.69;32.30;101567.22;5091155;28;20055;-90
2023/03/17 09:04:12;;;;;;;1.60;1.23;;;;;;;14.93;31.43;101563.81;5094381;28;20052;-90
2023/03/17 09:06:40;;;;;;;3.33;1.13;;;;;;;15.12;30.67;101563.97;5092345;28;20067;-89
2023/03/17 09:09:29;;;;;;;2.08;1.58;;;;;;;15.36;31.55;101557.72;5091720;28;20494;-90
2023/03/17 09:11:58;;;;;;;4.07;1.80;;;;;;;15.35;31.66;101558.00;5091202;28;20044;-89
2023/03/17 09:14:27;;;;;;;4.80;1.73;;;;;;;15.19;33.12;101558.13;5090231;28;20487;-89
2023/03/17 09:16:56;;;;;;;2.70;1.77;;;;;;;15.28;31.91;101564.69;5072022;28;20057;-89
2023/03/17 09:19:24;;;;;;;1.85;1.60;;;;;;;16.02;32.38;101556.59;5072456;28;20120;-90
2023/03/17 09:21:52;;;;;;;5.90;1.88;;;;;;;15.73;31.10;101555.44;5071095;28;20395;-90
2023/03/17 09:24:20;;;;;;;5.32;2.00;;;;;;;15.76;30.60;101562.31;5091358;28;20059;-89
2023/03/17 09:26:48;;;;;;;4.40;2.20;;;;;;;15.01;32.24;101556.88;5091999;28;20062;-89
2023/03/17 09:29:16;;;;;;;3.30;1.90;;;;;;;15.01;31.67;101557.69;5081319;28;20055;-89
2023/03/17 09:31:44;;;;;;;3.13;2.33;;;;;;;14.88;31.32;101561.94;5087897;28;20052;-89
2023/03/17 09:34:12;;;;;;;3.80;2.40;;;;;;;14.53;31.74;101552.72;5071645;28;20044;-90
2023/03/17 09:36:40;;;;;;;3.05;2.28;;;;;;;15.04;31.25;101554.38;5074075;28;20071;-90
2023/03/17 09:39:08;;;;;;;3.70;2.53;;;;;;;15.36;32.06;101551.38;5091640;28;20118;-90
2023/03/17 09:41:59;;;;;;;2.60;2.05;;;;;;;15.35;32.65;101560.75;5091784;28;20048;-88
2023/03/17 09:45:02;;;;;;;3.25;2.25;;;;;;;15.11;33.98;101561.50;5089217;28;20048;-89
2023/03/17 09:47:52;;;;;;;2.78;1.73;;;;;;;15.26;32.23;101549.53;5091440;28;20051;-91
2023/03/17 09:50:49;;;;;;;4.22;1.77;;;;;;;15.85;31.31;101558.63;5091860;28;20426;-91
2023/03/17 09:53:23;;;;;;;3.47;2.00;;;;;;;15.80;32.70;101560.63;5091830;28;20040;-90
2023/03/17 09:55:57;;;;;;;4.40;2.00;;;;;;;15.50;30.57;101552.34;5091646;28;20044;-90
2023/03/17 09:58:28;;;;;;;;;;;;;;;15.09;33.95;101544.41;5089324;28;20114;-89
2023/03/17 10:00:56;;;;;;;4.47;1.67;;;;;;;15.12;33.85;101544.69;5092372;28;19927;-90
2023/03/17 10:03:26;;;;;;;4.35;2.45;;;;;;;14.98;31.94;101547.25;5069728;28;20044;-89
2023/03/17 10:06:16;;;;;;;4.35;2.40;;;;;;;15.19;31.74;101547.09;5071954;28;20053;-90
2023/03/17 10:08:59;;;;;;;2.35;2.15;;;;;;;14.67;31.65;101547.41;5079720;28;20048;-89
2023/03/17 10:11:36;;;;;;;3.70;1.80;;;;;;;15.30;30.58;101542.34;5091577;28;20048;-91
2023/03/17 10:14:20;;;;;;;4.35;2.42;;;;;;;16.05;30.92;101548.53;5085594;28;20036;-91
2023/03/17 10:17:00;;;;;;;4.60;2.35;;;;;;;15.33;31.57;101541.75;5071503;28;20048;-89
2023/03/17 10:19:34;;;;;;;2.72;2.15;;;;;;;14.83;33.90;101545.44;5088100;28;20072;-92
2023/03/17 10:22:14;;;;;;;2.90;2.17;;;;;;;15.25;33.31;101534.91;5079863;28;20499;-93
2023/03/17 10:24:53;;;;;;;5.75;2.60;;;;;;;14.30;32.12;101534.91;5070949;28;20063;-93
2023/03/17 10:27:22;;;;;;;3.85;1.90;;;;;;;15.44;31.94;101537.78;5070920;28;20051;-93
2023/03/17 10:29:50;;;;;;;4.90;2.65;;;;;;;15.43;31.04;101536.16;5090769;28;20040;-93
2023/03/17 10:32:17;;;;;;;2.85;2.13;;;;;;;15.80;30.25;101528.31;5093067;28;20047;-94
2023/03/17 10:34:47;;;;;;;7.03;2.30;;;;;;;15.95;30.76;101529.31;5091687;28;20051;-93
2023/03/17 10:37:22;;;;;;;5.05;2.28;;;;;;;16.05;32.10;101523.69;5091500;28;20047;-92
2023/03/17 10:39:53;;;;;;;3.47;2.40;;;;;;;16.34;29.69;101531.06;5077201;28;20059;-94
2023/03/17 10:42:24;;;;;;;3.50;2.10;;;;;;;16.61;32.02;101532.34;5092285;28;20410;-92
2023/03/17 10:45:29;;;;;;;5.18;3.17;;;;;;;16.12;31.87;101518.63;5091482;28;20059;-92
2023/03/17 10:48:00;;;;;;;4.07;2.10;;;;;;;15.83;30.48;101522.22;5071812;28;20055;-91
2023/03/17 10:50:34;;;;;;;6.97;2.38;;;;;;;15.94;29.69;101513.88;5090913;28;20048;-93
2023/03/17 10:53:02;;;;;;;3.10;2.25;;;;;;;15.98;34.29;101512.16;5091833;28;20060;-92
2023/03/17 10:55:33;;;;;;;4.85;3.08;;;;;;;16.42;31.99;101513.00;5073147;28;20284;-92
2023/03/17 10:58:15;;;;;;;2.97;1.80;;;;;;;16.78;31.56;101511.66;5090965;28;20482;-93
2023/03/17 11:01:06;;;;;;;4.03;2.58;;;;;;;16.96;30.81;101509.19;5091538;28;20055;-94
2023/03/17 11:03:38;;;;;;;4.55;2.55;;;;;;;16.46;29.72;101508.53;5091387;28;20396;-93
2023/03/17 11:06:10;;;;;;;3.78;2.10;;;;;;;16.25;29.57;101510.72;5087944;28;20063;-93
2023/03/17 11:08:41;;;;;;;6.82;2.90;;;;;;;16.92;29.55;101498.72;5078982;28;20398;-94
2023/03/17 11:11:22;;;;;;;4.40;2.80;;;;;;;17.38;30.94;101490.81;5092047;28;20048;-90
2023/03/17 11:13:59;;;;;;;3.63;2.42;;;;;;;17.45;30.44;101484.88;5093267;28;20479;-93
2023/03/17 11:16:28;;;;;;;3.15;2.55;;;;;;;17.22;28.72;101494.97;5091751;28;20048;-94
2023/03/17 11:18:59;;;;;;;4.15;2.60;;;;;;;16.81;29.73;101499.19;5086463;28;20036;-92
2023/03/17 11:21:37;;;;;;;8.80;3.05;;;;;;;16.61;33.28;101492.84;5091852;28;20056;-92
2023/03/17 11:24:11;;;;;;;4.10;3.00;;;;;;;16.35;33.61;101482.16;5085818;28;20063;-93
2023/03/17 11:26:47;;;;;;;4.05;2.58;;;;;;;16.93;28.90;101480.19;5070840;28;20056;-92
2023/03/17 11:29:33;;;;;;;4.50;2.55;;;;;;;16.73;33.02;101473.88;5083067;28;20047;-88
2023/03/17 11:32:26;;;;;;;5.80;2.83;;;;;;;16.74;32.04;101471.91;5056606;28;20044;-87
2023/03/17 11:35:12;;;;;;;4.45;2.30;;;;;;;16.22;31.80;101470.72;5058618;28;20407;-87
2023/03/17 11:38:16;;;;;;;4.93;3.17;;;;;;;15.91;33.27;101462.81;5055968;28;20052;-87
2023/03/17 11:41:30;;;;;;;4.47;3.00;;;;;;;16.03;32.91;101454.13;5039340;28;20056;-86
2023/03/17 11:44:33;;;;;;;4.55;2.63;;;;;;;16.15;32.95;101452.88;5059734;28;20064;-86
2023/03/17 11:47:26;;;;;;;4.82;2.72;;;;;;;15.85;33.16;101453.75;5075268;28;20056;-86
2023/03/17 11:50:21;;;;;;;3.65;2.42;;;;;;;15.91;34.58;101451.75;5056546;28;20517;-86